New Paltz, NY (12561)

6:13 AM EDT on May 26, 2017 (GMT -0400)
Town of New Paltz | | Change Station

Elev 251 ft 41.75 °N, 74.08 °W | Updated 8 seconds ago

Rain
Rain
52.9 °F
Feels Like 52.9 °F
N
0.0
Wind Variable Wind from SSW
Gusts 0.0 mph

Today
High -- | Low -- °F
--% Chance of Precip.
Yesterday
High -- | Low -- °F
Precip. -- in
Pressure 29.52 in
Visibility 9.0 miles
Clouds Overcast 2500 ft
Dew Point 53 °F
Humidity 99%
Rainfall 0.11 in
Snow Depth Not available.
5:27 AM 8:20 PM
New Moon, 1% visible
METAR KPOU 260953Z 30004KT 9SM -RA OVC025 12/11 A2953 RMK AO2 RAB07 SLP996 P0001 T01170111
Pressure 29.52 in
Visibility 9.0 miles
Clouds Overcast 2500 ft
Dew Point 53 °F
Humidity 99%
Rainfall 0.11 in
Snow Depth Not available.
5:27 AM 8:20 PM
New Moon, 1% visible
METAR KPOU 260953Z 30004KT 9SM -RA OVC025 12/11 A2953 RMK AO2 RAB07 SLP996 P0001 T01170111

Get Severe Weather Alerts

Thanks for signing up!

Be on the lookout for a verification email in your inbox.

You'll start receiving the daily forecast at 6 AM.

×

10-Day Weather Forecast

Almanac

Astronomy

May. 26, 2017 Rise Set
Actual Time
Civil Twilight
Nautical Twilight
Astronomical Twilight
Moon
Length of Visible Light
Length of Day
Tomorrow will be .
, % of the Moon is Illuminated

Today's Extremes

State Highs State Lows

Community

WunderPhotos

Category 6

Welcome to Category 6. This is the collective home for Weather Underground's featured writeups by Dr. Jeff Masters (right), Bob Henson (left), Chris Burt, and other regular contributors.

Nearby

Air Quality

  Air Quality AQ Index Pollutant
Not available.

Snow Depth

Station Depth Elevation

Earthquake Activity

City Distance Mag. Time & Date
Minimum magnitude displayed is 2.5.

Coastal Water Temperatures

Place Temperature

Stations

Nearby Weather Stations

Station Location Temp. Windchill Dew Point Humidity Wind Precip. Elev Updated Type
                   

Watches & Warnings

There are currently no watches in effect.